ADDS METAR Data INFO
IDs: Format: Raw Decoded Include TAF

Data at: 2042 UTC 16 Dec 2017

KHJO 161953Z AUTO 35008KT 10SM CLR 13/03 A2986 RMK AO2 RAE47 SLP112 P0000 T01330033
KHJO 161853Z AUTO 34014G19KT 8SM -RA CLR 12/02 A2988 RMK AO2 RAB12 SLP119 P0000 T01220022
KHJO 161753Z AUTO 33013KT 7SM CLR 11/03 A2988 RMK AO2 SLP121 60000 T01110033 10111 20017 53001
KHJO 161653Z AUTO 33006KT 4SM HZ CLR 09/04 A2988 RMK AO2 SLP119 T00940044
KHJO 161631Z AUTO 30003KT 3SM HZ CLR 08/04 A2988 RMK AO2 T00780039
KHJO 161609Z AUTO 27003KT 2SM BR CLR 05/03 A2988 RMK AO2 T00500028
KHJO 161553Z AUTO 00000KT 1 3/4SM BR CLR 03/02 A2988 RMK AO2 SNB12E25 SLP120 P0000 T00280017
KHJO 161522Z AUTO 21003KT 1 1/2SM -SN BR CLR 02/01 A2988 RMK AO2 SNB12 P0000 T00170006
KHJO 161453Z AUTO 21004KT 2SM BR CLR 02/01 A2988 RMK AO2 SLP121 T00170011 55002
KHJO 161440Z AUTO 18004KT 1 1/2SM BR CLR 02/01 A2988 RMK AO2 T00170011
KHJO 161414Z AUTO 18003KT 2 1/2SM BR CLR 03/02 A2988 RMK AO2 T00280017
KHJO 161407Z AUTO 17003KT 3SM BR CLR 03/02 A2988 RMK AO2 T00330022
KHJO 161353Z AUTO 13005KT 2 1/2SM BR CLR 03/02 A2987 RMK AO2 SLP118 T00330022
KHJO 161253Z AUTO 17003KT 2SM BR CLR 03/02 A2988 RMK AO2 SLP120 T00280022
KHJO 161153Z AUTO 00000KT 2 1/2SM BR CLR 03/02 A2989 RMK AO2 SLP123 T00330022 10100 20033 58017
KHJO 161108Z AUTO 00000KT 2 1/2SM BR CLR 04/03 A2990 RMK AO2 T00440033
KHJO 161053Z AUTO 00000KT 3SM BR CLR 04/03 A2991 RMK AO2 SLP130 T00440033
KHJO 161039Z AUTO 00000KT 2 1/2SM BR CLR 04/03 A2991 RMK AO2 T00440033
KHJO 160953Z AUTO 25004KT 3SM HZ CLR 07/03 A2993 RMK AO2 SLP138 T00670033
KHJO 160853Z AUTO 26004KT 4SM HZ CLR 09/04 A2994 RMK AO2 SLP139 T00940044 58016
KHJO 160753Z AUTO 33004KT 4SM HZ FEW110 08/04 A2996 RMK AO2 SLP148 T00830044 401781011
KHJO 160653Z AUTO 31007KT 4SM HZ CLR 09/03 A3000 RMK AO2 SLP160 T00940033
KHJO 160553Z AUTO 31005KT 4SM HZ CLR 09/03 A2998 RMK AO2 SLP156 T00890028 10150 20072 58015
KHJO 160453Z AUTO 31007KT 4SM HZ CLR 08/02 A3001 RMK AO2 SLP164 T00830017
KHJO 160353Z AUTO 32004KT 4SM HZ CLR 09/03 A3001 RMK AO2 SLP166 T00940028
KHJO 160253Z AUTO 30003KT 3SM HZ CLR 08/03 A3003 RMK AO2 SLP172 T00780033 58002
KHJO 160153Z AUTO 33004KT 3SM HZ CLR 09/04 A3003 RMK AO2 SLP172 T00890044
KHJO 160053Z AUTO 00000KT 4SM HZ CLR 10/05 A3004 RMK AO2 SLP175 T01000050
KHJO 160049Z AUTO 19003KT 4SM HZ CLR 11/05 A3003 RMK AO2
KHJO 160010Z AUTO 00000KT 2 1/2SM HZ CLR 13/05 A3004 RMK AO2 T01330050
KHJO 152353Z AUTO 00000KT 3SM HZ CLR 15/04 A3004 RMK AO2 SLP175 T01500039 10178 20072 56023
KHJO 152253Z AUTO 00000KT 3SM HZ CLR 17/02 A3006 RMK AO2 SLP182 T01720022
KHJO 152153Z AUTO 00000KT 3SM HZ CLR 17/02 A3008 RMK AO2 SLP190 T01670022
KHJO 152053Z AUTO 00000KT 3SM HZ CLR 16/02 A3011 RMK AO2 SLP198 T01560022 58032
KHJO 152022Z AUTO 00000KT 3SM HZ CLR 14/03 A3014 RMK AO2 T01440028
KHJO 152004Z AUTO 00000KT 2 1/2SM HZ CLR 14/03 A3015 RMK AO2 T01390033
KHJO 151953Z AUTO VRB03KT 3SM HZ CLR 13/03 A3015 RMK AO2 SLP213 T01330028
KHJO 151943Z AUTO 17004KT 3SM HZ CLR 13/03 A3016 RMK AO2 T01330028
KHJO 151932Z AUTO 15004KT 2 1/2SM HZ CLR 13/03 A3016 RMK AO2 T01280028
KHJO 151921Z AUTO 19003KT 3SM HZ CLR 12/03 A3017 RMK AO2 T01170028
KHJO 151853Z AUTO 00000KT 2 1/2SM HZ CLR 11/03 A3019 RMK AO2 SLP226 T01060028
KHJO 151812Z AUTO 19003KT 2SM HZ CLR 08/03 A3020 RMK AO2 T00830028
KHJO 151753Z AUTO 19004KT 1 3/4SM HZ CLR 07/03 A3020 RMK AO2 SLP231 T00720028 10072 21011 50002
KHJO 151738Z AUTO 00000KT 2SM HZ CLR 07/03 A3020 RMK AO2 T00670028
KHJO 151653Z AUTO 00000KT 1 1/2SM BR CLR 04/02 A3021 RMK AO2 SLP234 T00390022
KHJO 151619Z AUTO 00000KT 1SM BR CLR 01/01 A3021 RMK AO2 T00110006
KHJO 151607Z AUTO 00000KT 3/4SM BR CLR 01/01 A3021 RMK AO2 T00060006
KHJO 151553Z AUTO 00000KT 1SM BR CLR 00/M01 A3021 RMK AO2 SLP235 T00001006
KHJO 151520Z AUTO 00000KT 3/4SM BR CLR M01/M01 A3021 RMK AO2 T10061011
KHJO 151453Z AUTO 00000KT 1 1/4SM BR CLR M01/M02 A3020 RMK AO2 SLP230 T10111017 53002
KHJO 151353Z AUTO 00000KT 1 3/4SM BR CLR 01/M01 A3019 RMK AO2 SLP228 T00061006
KHJO 151253Z AUTO 00000KT 1SM BR CLR M01/M02 A3018 RMK AO2 SLP221 T10111017
KHJO 151237Z AUTO 00000KT 1 3/4SM BR CLR 00/M01 A3018 RMK AO2 T00001006
KHJO 151225Z AUTO 00000KT 2SM BR CLR 00/M01 A3019 RMK AO2 T00001006
KHJO 151153Z AUTO 04003KT 1 3/4SM BR CLR 01/M01 A3019 RMK AO2 SLP226 T00061006 10039 20000 58004
KHJO 151053Z AUTO 06004KT 1 1/2SM BR CLR 02/01 A3020 RMK AO2 SLP229 T00170011
KHJO 150953Z AUTO 00000KT 1 1/2SM BR CLR 01/00 A3021 RMK AO2 SLP232 T00060000
KHJO 150923Z AUTO 34003KT 1 3/4SM BR CLR 01/00 A3021 RMK AO2 T00060000
KHJO 150915Z AUTO 00000KT 2SM BR CLR 01/00 A3020 RMK AO2 T00110000
KHJO 150904Z AUTO 00000KT 1 3/4SM BR CLR 02/01 A3020 RMK AO2 T00170011
KHJO 150853Z AUTO 00000KT 2SM BR CLR 02/01 A3021 RMK AO2 SLP231 T00170011 56002
KHJO 150843Z AUTO 34003KT 2SM BR CLR 02/01 A3021 RMK AO2 T00220011